Time;durP1;ratioP1;P1;durP2;ratioP2;P2;SDS_P1;SDS_P2;PMS_P1;PMS_P2;Temp;Humidity;BMP_temperature;BMP_pressure;BME280_temperature;BME280_humidity;BME280_pressure;Samples;Min_cycle;Max_cycle;Signal;HPM_P1;HPM_P2
2022/10/03 00:01:47;;;;;;;1.25;1.15;;;;;;;;;;5097929;28;20032;-77
2022/10/03 00:04:21;;;;;;;4.47;1.02;;;;;;;;;;5097829;28;20048;-77
2022/10/03 00:06:56;;;;;;;3.10;1.15;;;;;;;;;;5098238;28;20121;-76
2022/10/03 00:09:28;;;;;;;2.05;0.80;;;;;;;;;;5097855;28;20043;-76
2022/10/03 00:12:14;;;;;;;6.00;1.70;;;;;;;;;;5097712;28;20094;-77
2022/10/03 00:15:02;;;;;;;2.97;1.00;;;;;;;;;;5097373;28;20040;-77
2022/10/03 00:17:37;;;;;;;2.90;1.00;;;;;;;;;;5098042;28;20047;-77
2022/10/03 00:20:24;;;;;;;3.28;1.15;;;;;;;;;;5097118;28;20548;-77
2022/10/03 00:23:01;;;;;;;4.07;1.20;;;;;;;;;;5066055;28;20098;-77
2022/10/03 00:25:34;;;;;;;3.42;1.35;;;;;;;;;;5097617;28;20051;-76
2022/10/03 00:28:18;;;;;;;4.13;1.42;;;;;;;;;;5096862;28;20056;-77
2022/10/03 00:30:59;;;;;;;4.22;1.30;;;;;;;;;;5097396;28;20100;-77
2022/10/03 00:33:25;;;;;;;2.75;1.17;;;;;;;;;;5097621;28;20044;-77
2022/10/03 00:35:55;;;;;;;4.40;1.33;;;;;;;;;;5097935;28;20043;-77
2022/10/03 00:38:21;;;;;;;1.73;1.50;;;;;;;;;;5097394;28;20067;-77
2022/10/03 00:40:59;;;;;;;3.30;1.52;;;;;;;;;;5097847;28;20051;-76
2022/10/03 00:43:26;;;;;;;2.72;1.40;;;;;;;;;;5096471;28;20036;-77
2022/10/03 00:46:00;;;;;;;2.90;1.40;;;;;;;;;;5096821;28;20065;-76
2022/10/03 00:48:45;;;;;;;4.00;1.40;;;;;;;;;;5097530;28;20044;-76
2022/10/03 00:51:17;;;;;;;5.63;1.50;;;;;;;;;;5096975;28;20043;-77
2022/10/03 00:53:46;;;;;;;5.75;1.70;;;;;;;;;;5096912;28;20055;-77
2022/10/03 00:56:21;;;;;;;2.83;1.50;;;;;;;;;;5097232;28;20046;-76
2022/10/03 00:58:47;;;;;;;2.25;1.30;;;;;;;;;;5097118;28;20050;-76
2022/10/03 01:01:39;;;;;;;2.05;1.40;;;;;;;;;;5096836;28;20042;-77
2022/10/03 01:04:05;;;;;;;3.15;1.30;;;;;;;;;;5093814;28;20051;-77
2022/10/03 01:06:38;;;;;;;1.88;1.52;;;;;;;;;;5096705;28;20040;-77
2022/10/03 01:09:22;;;;;;;4.30;1.58;;;;;;;;;;5096734;28;20039;-76
2022/10/03 01:12:07;;;;;;;2.17;1.50;;;;;;;;;;5097210;28;20052;-77
2022/10/03 01:14:52;;;;;;;9.90;5.40;;;;;;;;;;5096553;28;20044;-77
2022/10/03 01:17:30;;;;;;;6.47;3.63;;;;;;;;;;5097112;28;20510;-77
2022/10/03 01:20:21;;;;;;;9.80;4.20;;;;;;;;;;5096529;28;20035;-76
2022/10/03 01:22:59;;;;;;;9.93;2.63;;;;;;;;;;5096494;28;20048;-76
2022/10/03 01:25:25;;;;;;;9.15;3.65;;;;;;;;;;5096362;28;20039;-76
2022/10/03 01:30:55;;;;;;;5.32;2.30;;;;;;;;;;5095734;28;20070;-76
2022/10/03 01:33:27;;;;;;;6.72;3.00;;;;;;;;;;5096653;28;20507;-76
2022/10/03 01:36:01;;;;;;;4.55;2.72;;;;;;;;;;5096441;28;20089;-76
2022/10/03 01:38:52;;;;;;;4.07;2.20;;;;;;;;;;5095830;28;20036;-76
2022/10/03 01:41:28;;;;;;;4.28;2.25;;;;;;;;;;5088338;28;20044;-77
2022/10/03 01:43:59;;;;;;;3.78;2.05;;;;;;;;;;5095795;28;20048;-77
2022/10/03 01:46:27;;;;;;;;;;;;;;;;;;5097028;28;20040;-76
2022/10/03 01:49:06;;;;;;;3.38;2.20;;;;;;;;;;5095550;28;19908;-77
2022/10/03 01:51:41;;;;;;;3.13;2.10;;;;;;;;;;5096075;28;20116;-77
2022/10/03 01:54:07;;;;;;;5.82;2.17;;;;;;;;;;5095975;28;20059;-77
2022/10/03 01:56:49;;;;;;;4.63;1.92;;;;;;;;;;5095518;28;20040;-76
2022/10/03 01:59:34;;;;;;;5.68;2.30;;;;;;;;;;5095295;28;20624;-76
2022/10/03 02:02:06;;;;;;;4.00;2.00;;;;;;;;;;5096313;28;20035;-77
2022/10/03 02:04:50;;;;;;;3.50;1.95;;;;;;;;;;5095307;28;20124;-78
2022/10/03 02:07:20;;;;;;;8.05;1.90;;;;;;;;;;5095944;28;20044;-77
2022/10/03 02:10:06;;;;;;;4.95;1.73;;;;;;;;;;5095289;28;20032;-77
2022/10/03 02:12:38;;;;;;;3.78;1.70;;;;;;;;;;5095748;28;20471;-77
2022/10/03 02:15:04;;;;;;;3.10;1.85;;;;;;;;;;5095509;28;20075;-76
2022/10/03 02:17:46;;;;;;;4.78;1.88;;;;;;;;;;5095433;28;20088;-77
2022/10/03 02:20:12;;;;;;;11.48;2.30;;;;;;;;;;5095596;28;20131;-77
2022/10/03 02:22:47;;;;;;;6.70;1.90;;;;;;;;;;5095360;28;20048;-76
2022/10/03 02:25:31;;;;;;;3.42;2.28;;;;;;;;;;5095223;28;20085;-76
2022/10/03 02:28:16;;;;;;;6.43;2.10;;;;;;;;;;5095337;28;20098;-77
2022/10/03 02:31:01;;;;;;;3.40;2.20;;;;;;;;;;5095464;28;20044;-76
2022/10/03 02:33:56;;;;;;;5.78;1.98;;;;;;;;;;5095872;28;20044;-76
2022/10/03 02:36:24;;;;;;;5.90;1.92;;;;;;;;;;5040815;28;20068;-78
2022/10/03 02:39:09;;;;;;;5.82;2.08;;;;;;;;;;5094746;28;20559;-77
2022/10/03 02:41:41;;;;;;;5.55;1.75;;;;;;;;;;5095697;28;20131;-77
2022/10/03 02:44:26;;;;;;;3.03;1.92;;;;;;;;;;5095251;28;20118;-76
2022/10/03 02:47:21;;;;;;;2.72;1.90;;;;;;;;;;5095244;28;20101;-76
2022/10/03 02:50:05;;;;;;;4.07;1.90;;;;;;;;;;5095243;28;20119;-76
2022/10/03 02:52:42;;;;;;;3.60;2.00;;;;;;;;;;5095478;28;20052;-76
2022/10/03 02:55:27;;;;;;;2.67;2.20;;;;;;;;;;5095700;28;20048;-76
2022/10/03 02:57:53;;;;;;;2.50;2.10;;;;;;;;;;5095353;28;20567;-76
2022/10/03 03:00:21;;;;;;;4.65;2.15;;;;;;;;;;5094276;28;20051;-77
2022/10/03 03:03:06;;;;;;;4.28;2.22;;;;;;;;;;5095139;28;20491;-77
2022/10/03 03:05:38;;;;;;;2.78;2.03;;;;;;;;;;5094987;28;20115;-76
2022/10/03 03:08:23;;;;;;;3.95;2.22;;;;;;;;;;5095008;28;20039;-77
2022/10/03 03:11:08;;;;;;;3.97;1.85;;;;;;;;;;5094631;28;20048;-76
2022/10/03 03:13:53;;;;;;;5.13;2.42;;;;;;;;;;5095100;28;20048;-76
2022/10/03 03:16:38;;;;;;;3.28;2.20;;;;;;;;;;5094920;28;20063;-76
2022/10/03 03:19:22;;;;;;;5.00;2.00;;;;;;;;;;5094581;28;20040;-76
2022/10/03 03:21:49;;;;;;;5.72;2.10;;;;;;;;;;5094813;28;20044;-77
2022/10/03 03:24:22;;;;;;;2.75;1.70;;;;;;;;;;5095173;28;20044;-77
2022/10/03 03:27:06;;;;;;;5.22;2.20;;;;;;;;;;5094167;28;20032;-77
2022/10/03 03:29:45;;;;;;;5.88;2.83;;;;;;;;;;5094320;28;20128;-77
2022/10/03 03:32:17;;;;;;;10.27;9.15;;;;;;;;;;5095034;28;20040;-76
2022/10/03 03:34:48;;;;;;;5.07;3.05;;;;;;;;;;5094347;28;20046;-77
2022/10/03 03:37:29;;;;;;;2.92;1.83;;;;;;;;;;5094207;28;20040;-76
2022/10/03 03:40:14;;;;;;;2.90;2.08;;;;;;;;;;5094420;28;20036;-77
2022/10/03 03:42:52;;;;;;;5.63;2.38;;;;;;;;;;5093047;28;20394;-77
2022/10/03 03:45:28;;;;;;;3.25;2.20;;;;;;;;;;5094557;28;20047;-77
2022/10/03 03:48:13;;;;;;;4.55;2.58;;;;;;;;;;5094840;28;20059;-77
2022/10/03 03:50:47;;;;;;;6.65;3.05;;;;;;;;;;5093924;28;20575;-76
2022/10/03 03:53:39;;;;;;;3.17;2.13;;;;;;;;;;5095111;28;20059;-76
2022/10/03 03:56:14;;;;;;;2.75;2.05;;;;;;;;;;5094548;28;20123;-77
2022/10/03 03:59:04;;;;;;;8.60;2.10;;;;;;;;;;5093938;28;20497;-76
2022/10/03 04:01:55;;;;;;;3.63;2.60;;;;;;;;;;5094250;28;20048;-77
2022/10/03 04:04:21;;;;;;;;;;;;;;;;;;5094310;28;20380;-77
2022/10/03 04:07:16;;;;;;;5.32;2.42;;;;;;;;;;5093862;28;19915;-77
2022/10/03 04:09:53;;;;;;;4.75;2.17;;;;;;;;;;5094225;28;20044;-76
2022/10/03 04:12:28;;;;;;;5.32;2.38;;;;;;;;;;5094802;28;20391;-77
2022/10/03 04:15:13;;;;;;;7.88;3.05;;;;;;;;;;5097851;28;20054;-77
2022/10/03 04:20:57;;;;;;;10.43;3.95;;;;;;;;;;5097178;28;20050;-77
2022/10/03 04:23:38;;;;;;;9.88;6.32;;;;;;;;;;5097340;28;20524;-77
2022/10/03 04:26:22;;;;;;;8.18;4.32;;;;;;;;;;5097911;28;20105;-77
2022/10/03 04:29:04;;;;;;;9.38;4.63;;;;;;;;;;5097061;28;20054;-77
2022/10/03 04:31:49;;;;;;;7.88;4.78;;;;;;;;;;5097403;28;20093;-77
2022/10/03 04:34:21;;;;;;;11.13;4.75;;;;;;;;;;5097257;28;20489;-77
2022/10/03 04:37:07;;;;;;;7.40;3.67;;;;;;;;;;5097725;28;20063;-76
2022/10/03 04:39:45;;;;;;;8.07;3.90;;;;;;;;;;5097314;28;20032;-76
2022/10/03 04:42:29;;;;;;;10.40;3.85;;;;;;;;;;5097529;28;20051;-76
2022/10/03 04:45:07;;;;;;;7.90;3.05;;;;;;;;;;5097239;28;20032;-76
2022/10/03 04:47:48;;;;;;;5.70;3.63;;;;;;;;;;5096852;28;20363;-76
2022/10/03 04:50:24;;;;;;;12.98;7.32;;;;;;;;;;5097552;28;20044;-76
2022/10/03 04:52:50;;;;;;;5.97;4.57;;;;;;;;;;5097848;28;20046;-76
2022/10/03 04:55:28;;;;;;;10.35;5.38;;;;;;;;;;5097008;28;20567;-76
2022/10/03 04:58:14;;;;;;;5.13;3.90;;;;;;;;;;5096986;28;20040;-76
2022/10/03 05:00:57;;;;;;;9.00;4.20;;;;;;;;;;5085909;28;20055;-76
2022/10/03 05:03:49;;;;;;;7.10;3.88;;;;;;;;;;5097369;28;20506;-76
2022/10/03 05:06:33;;;;;;;11.00;4.40;;;;;;;;;;5073129;28;20067;-76
2022/10/03 05:08:59;;;;;;;7.28;3.83;;;;;;;;;;5096436;28;20039;-76
2022/10/03 05:11:26;;;;;;;9.55;4.10;;;;;;;;;;5096170;28;20074;-76
2022/10/03 05:14:02;;;;;;;55.70;42.88;;;;;;;;;;5096615;28;20123;-74
2022/10/03 05:16:41;;;;;;;13.70;9.00;;;;;;;;;;5096345;28;20040;-74
2022/10/03 05:19:26;;;;;;;7.25;4.90;;;;;;;;;;5096737;28;20158;-74
2022/10/03 05:21:58;;;;;;;10.18;4.60;;;;;;;;;;5114817;28;20046;-74
2022/10/03 05:24:40;;;;;;;6.55;4.03;;;;;;;;;;5115988;28;20070;-74
2022/10/03 05:27:19;;;;;;;5.13;3.92;;;;;;;;;;5108336;28;20108;-76
2022/10/03 05:29:52;;;;;;;7.38;4.00;;;;;;;;;;5100829;28;20032;-77
2022/10/03 05:32:24;;;;;;;6.03;4.32;;;;;;;;;;5116702;28;20134;-77
2022/10/03 05:34:50;;;;;;;8.02;4.10;;;;;;;;;;5116308;28;20044;-76
2022/10/03 05:37:16;;;;;;;8.55;3.35;;;;;;;;;;5116327;28;20040;-77
2022/10/03 05:39:46;;;;;;;6.18;3.92;;;;;;;;;;5116503;28;20046;-77
2022/10/03 05:42:15;;;;;;;12.80;4.23;;;;;;;;;;5116464;28;20127;-77
2022/10/03 05:45:08;;;;;;;5.97;3.10;;;;;;;;;;5115986;28;20258;-77
2022/10/03 05:47:54;;;;;;;10.65;3.47;;;;;;;;;;5112551;28;20487;-77
2022/10/03 05:50:41;;;;;;;5.05;3.15;;;;;;;;;;5116307;28;20123;-76
2022/10/03 05:53:16;;;;;;;5.57;3.58;;;;;;;;;;5115933;28;20092;-77
2022/10/03 05:55:45;;;;;;;7.05;3.45;;;;;;;;;;5115854;28;20493;-77
2022/10/03 05:58:30;;;;;;;5.85;3.65;;;;;;;;;;5116266;28;20063;-77
2022/10/03 06:01:14;;;;;;;11.13;3.80;;;;;;;;;;5116186;28;20043;-76
2022/10/03 06:04:04;;;;;;;8.70;3.60;;;;;;;;;;5115744;28;20047;-75
2022/10/03 06:06:48;;;;;;;8.35;3.83;;;;;;;;;;5102977;28;20040;-77
2022/10/03 06:09:32;;;;;;;7.75;4.05;;;;;;;;;;5112866;28;20044;-77
2022/10/03 06:12:13;;;;;;;10.02;3.90;;;;;;;;;;5112823;28;20061;-77
2022/10/03 06:14:48;;;;;;;7.78;3.80;;;;;;;;;;5113438;28;20039;-77
2022/10/03 06:17:14;;;;;;;6.60;3.60;;;;;;;;;;5111894;28;20032;-77
2022/10/03 06:19:58;;;;;;;10.02;3.47;;;;;;;;;;5115278;28;20119;-77
2022/10/03 06:22:43;;;;;;;5.13;3.40;;;;;;;;;;5113116;28;20044;-77
2022/10/03 06:25:15;;;;;;;8.45;3.50;;;;;;;;;;5114274;28;20046;-75
2022/10/03 06:27:50;;;;;;;9.75;4.13;;;;;;;;;;5114819;28;20051;-75
2022/10/03 06:30:25;;;;;;;6.72;2.90;;;;;;;;;;5111119;28;20032;-76
2022/10/03 06:32:58;;;;;;;6.28;2.72;;;;;;;;;;5095133;28;20494;-76
2022/10/03 06:35:36;;;;;;;7.40;3.30;;;;;;;;;;5103020;28;20043;-76
2022/10/03 06:38:05;;;;;;;7.55;3.55;;;;;;;;;;5114253;28;20619;-76
2022/10/03 06:40:40;;;;;;;6.72;3.75;;;;;;;;;;5115680;28;20039;-75
2022/10/03 06:43:16;;;;;;;7.22;3.72;;;;;;;;;;5112047;28;20047;-76
2022/10/03 06:46:00;;;;;;;5.97;3.80;;;;;;;;;;5114866;28;20046;-76
2022/10/03 06:48:29;;;;;;;13.80;6.00;;;;;;;;;;5115269;28;20031;-75
2022/10/03 06:51:22;;;;;;;12.52;4.65;;;;;;;;;;5114331;28;20035;-76
2022/10/03 06:53:52;;;;;;;7.72;3.90;;;;;;;;;;5114503;28;20044;-75
2022/10/03 06:56:18;;;;;;;8.68;3.28;;;;;;;;;;5098971;28;20063;-76
2022/10/03 06:58:53;;;;;;;7.60;3.60;;;;;;;;;;5109104;28;20160;-75
2022/10/03 07:01:49;;;;;;;10.60;3.70;;;;;;;;;;5094130;28;20134;-74
2022/10/03 07:04:34;;;;;;;6.15;3.38;;;;;;;;;;5097923;28;20043;-74
2022/10/03 07:07:04;;;;;;;7.75;3.33;;;;;;;;;;5114458;28;20051;-74
2022/10/03 07:09:52;;;;;;;45.83;7.95;;;;;;;;;;5112529;28;20114;-74
2022/10/03 07:12:33;;;;;;;9.65;3.90;;;;;;;;;;5114331;28;20134;-74
2022/10/03 07:15:02;;;;;;;5.15;3.75;;;;;;;;;;5105030;28;20498;-75
2022/10/03 07:17:33;;;;;;;9.40;3.97;;;;;;;;;;5094576;28;20039;-75
2022/10/03 07:20:01;;;;;;;;;;;;;;;;;;5110785;28;20085;-75
2022/10/03 07:22:36;;;;;;;7.18;3.22;;;;;;;;;;5104066;28;19908;-75
2022/10/03 07:25:13;;;;;;;9.43;3.53;;;;;;;;;;5109942;28;20051;-74
2022/10/03 07:27:52;;;;;;;5.63;3.10;;;;;;;;;;5091900;28;20048;-74
2022/10/03 07:30:38;;;;;;;6.68;3.28;;;;;;;;;;5099918;28;20040;-75
2022/10/03 07:33:20;;;;;;;4.68;3.63;;;;;;;;;;5111642;28;20059;-74
2022/10/03 07:39:10;;;;;;;9.27;3.00;;;;;;;;;;5113805;28;20092;-74
2022/10/03 07:41:51;;;;;;;6.30;3.17;;;;;;;;;;5114070;28;20574;-74
2022/10/03 07:44:41;;;;;;;6.25;2.65;;;;;;;;;;5114300;28;20050;-73
2022/10/03 07:47:10;;;;;;;8.25;2.40;;;;;;;;;;5076992;28;20105;-73
2022/10/03 07:49:48;;;;;;;7.13;2.67;;;;;;;;;;5118243;28;20043;-75
2022/10/03 07:52:14;;;;;;;6.18;2.72;;;;;;;;;;5117900;28;20048;-74
2022/10/03 07:54:41;;;;;;;4.05;2.20;;;;;;;;;;5117367;28;20035;-74
2022/10/03 07:57:20;;;;;;;5.32;2.40;;;;;;;;;;5115578;28;20494;-74
2022/10/03 08:00:02;;;;;;;5.88;2.45;;;;;;;;;;5102322;28;20168;-75
2022/10/03 08:02:28;;;;;;;5.28;2.10;;;;;;;;;;5117180;28;20489;-74
2022/10/03 08:05:13;;;;;;;3.97;2.85;;;;;;;;;;5116561;28;20130;-74
2022/10/03 08:07:52;;;;;;;5.05;2.35;;;;;;;;;;5117920;28;20114;-74
2022/10/03 08:10:28;;;;;;;7.85;2.20;;;;;;;;;;5117365;28;20563;-74
2022/10/03 08:12:54;;;;;;;7.03;2.20;;;;;;;;;;5118061;28;20067;-74
2022/10/03 08:15:26;;;;;;;5.75;2.22;;;;;;;;;;5116838;28;20039;-74
2022/10/03 08:17:58;;;;;;;4.25;1.40;;;;;;;;;;5118152;28;20027;-75
2022/10/03 08:20:24;;;;;;;4.13;1.70;;;;;;;;;;5116698;28;20055;-74
2022/10/03 08:22:58;;;;;;;4.13;1.70;;;;;;;;;;5116147;28;20091;-74
2022/10/03 08:25:27;;;;;;;3.67;1.48;;;;;;;;;;5117474;28;20410;-74
2022/10/03 08:28:12;;;;;;;1.95;1.15;;;;;;;;;;5117381;28;20063;-74
2022/10/03 08:31:01;;;;;;;3.72;1.70;;;;;;;;;;5116381;28;20520;-74
2022/10/03 08:33:27;;;;;;;5.60;1.90;;;;;;;;;;5117896;28;20035;-75
2022/10/03 08:36:07;;;;;;;6.25;1.88;;;;;;;;;;5114650;28;20047;-75
2022/10/03 08:38:46;;;;;;;3.83;1.75;;;;;;;;;;5116244;28;20042;-74
2022/10/03 08:41:30;;;;;;;2.22;1.42;;;;;;;;;;5109117;28;20054;-74
2022/10/03 08:44:02;;;;;;;4.10;1.60;;;;;;;;;;5104155;28;20031;-75
2022/10/03 08:46:31;;;;;;;4.70;1.42;;;;;;;;;;5099309;28;20052;-74
2022/10/03 08:49:16;;;;;;;5.10;1.85;;;;;;;;;;5097174;28;20040;-76
2022/10/03 08:51:43;;;;;;;5.15;1.60;;;;;;;;;;5097113;28;20067;-75
2022/10/03 08:54:27;;;;;;;5.75;1.33;;;;;;;;;;5097203;28;20125;-75
2022/10/03 08:56:59;;;;;;;5.15;1.30;;;;;;;;;;5112696;28;20036;-75
2022/10/03 08:59:37;;;;;;;4.63;1.50;;;;;;;;;;5110828;28;20482;-76
2022/10/03 09:02:03;;;;;;;4.00;1.30;;;;;;;;;;5114299;28;20104;-75
2022/10/03 09:04:48;;;;;;;3.47;1.25;;;;;;;;;;5115154;28;20047;-75
2022/10/03 09:07:24;;;;;;;4.05;1.25;;;;;;;;;;5116314;28;20037;-75
2022/10/03 09:10:06;;;;;;;3.47;1.00;;;;;;;;;;5110561;28;20040;-76
2022/10/03 09:12:51;;;;;;;5.10;1.10;;;;;;;;;;5111310;28;20517;-75
2022/10/03 09:15:43;;;;;;;2.60;1.25;;;;;;;;;;5105335;28;20028;-75
2022/10/03 09:18:30;;;;;;;3.47;1.15;;;;;;;;;;5067713;28;20055;-75
2022/10/03 09:21:16;;;;;;;2.83;1.23;;;;;;;;;;5055504;28;20051;-76
2022/10/03 09:24:01;;;;;;;4.38;1.33;;;;;;;;;;5102165;28;20122;-76
2022/10/03 09:26:40;;;;;;;2.47;1.13;;;;;;;;;;5115747;28;20103;-74
2022/10/03 09:29:24;;;;;;;3.47;1.60;;;;;;;;;;5116762;28;20044;-74
2022/10/03 09:32:09;;;;;;;3.33;1.20;;;;;;;;;;5105754;28;20039;-75
2022/10/03 09:34:54;;;;;;;3.75;1.20;;;;;;;;;;5096438;28;20066;-73
2022/10/03 09:37:38;;;;;;;3.53;1.20;;;;;;;;;;5096145;28;20043;-73
2022/10/03 09:40:23;;;;;;;4.85;1.13;;;;;;;;;;5096222;28;20064;-74
2022/10/03 09:42:49;;;;;;;4.35;1.20;;;;;;;;;;5096210;28;20055;-74
2022/10/03 09:45:30;;;;;;;2.80;1.25;;;;;;;;;;5096198;28;20494;-74
2022/10/03 09:48:14;;;;;;;1.95;1.08;;;;;;;;;;5095493;28;20048;-74
2022/10/03 09:50:52;;;;;;;2.53;1.00;;;;;;;;;;5096410;28;20043;-75
2022/10/03 09:53:26;;;;;;;3.10;1.20;;;;;;;;;;5103600;28;20043;-74
2022/10/03 09:56:07;;;;;;;5.13;1.20;;;;;;;;;;5116778;28;20036;-74
2022/10/03 09:58:34;;;;;;;3.15;1.15;;;;;;;;;;5115788;28;20117;-74
2022/10/03 10:01:03;;;;;;;4.82;1.00;;;;;;;;;;5115832;28;20114;-74
2022/10/03 10:03:48;;;;;;;3.83;1.10;;;;;;;;;;5116354;28;20047;-74
2022/10/03 10:06:15;;;;;;;4.85;1.10;;;;;;;;;;5102911;28;20067;-74
2022/10/03 10:08:44;;;;;;;3.20;1.10;;;;;;;;;;5095569;28;20028;-74
2022/10/03 10:11:28;;;;;;;2.95;0.95;;;;;;;;;;5094626;28;20490;-74
2022/10/03 10:14:00;;;;;;;6.20;1.10;;;;;;;;;;5095520;28;20044;-74
2022/10/03 10:16:41;;;;;;;4.28;1.02;;;;;;;;;;5095350;28;20545;-74
2022/10/03 10:19:11;;;;;;;1.70;1.00;;;;;;;;;;5095437;28;20043;-74
2022/10/03 10:22:00;;;;;;;2.85;1.20;;;;;;;;;;5095388;28;20035;-75
2022/10/03 10:24:45;;;;;;;2.55;1.27;;;;;;;;;;5100762;28;20043;-74
2022/10/03 10:27:41;;;;;;;3.15;1.20;;;;;;;;;;5094772;28;20055;-73
2022/10/03 10:30:14;;;;;;;4.20;1.40;;;;;;;;;;5113920;28;20077;-74
2022/10/03 10:32:40;;;;;;;3.17;1.20;;;;;;;;;;5115046;28;20051;-74
2022/10/03 10:35:25;;;;;;;4.85;1.52;;;;;;;;;;5097900;28;20047;-75
2022/10/03 10:37:53;;;;;;;3.35;1.25;;;;;;;;;;5113313;28;20526;-74
2022/10/03 10:40:39;;;;;;;5.22;1.40;;;;;;;;;;5113778;28;20127;-74
2022/10/03 10:43:08;;;;;;;4.05;1.63;;;;;;;;;;5113177;28;20039;-74
2022/10/03 10:45:38;;;;;;;1.42;0.98;;;;;;;;;;5114419;28;20039;-73
2022/10/03 10:48:10;;;;;;;2.53;1.05;;;;;;;;;;5114720;28;20193;-73
2022/10/03 10:50:52;;;;;;;5.88;1.13;;;;;;;;;;5114619;28;20061;-73
2022/10/03 10:53:38;;;;;;;2.42;1.15;;;;;;;;;;5106179;28;20127;-73
2022/10/03 10:56:05;;;;;;;1.25;0.93;;;;;;;;;;5092824;28;20032;-72
2022/10/03 10:59:03;;;;;;;3.65;1.42;;;;;;;;;;5093994;28;20031;-75
2022/10/03 11:01:35;;;;;;;3.75;1.25;;;;;;;;;;5093308;28;20051;-71
2022/10/03 11:04:04;;;;;;;3.00;1.00;;;;;;;;;;5094329;28;20040;-72
2022/10/03 11:06:36;;;;;;;2.92;1.13;;;;;;;;;;5094024;28;20123;-72
2022/10/03 11:09:08;;;;;;;4.50;1.30;;;;;;;;;;5093540;28;20066;-72
2022/10/03 11:11:53;;;;;;;3.10;1.60;;;;;;;;;;5092715;28;20055;-72
2022/10/03 11:14:38;;;;;;;3.40;1.08;;;;;;;;;;5094018;28;20051;-73
2022/10/03 11:17:13;;;;;;;1.75;1.10;;;;;;;;;;5093741;28;20522;-73
2022/10/03 11:19:56;;;;;;;2.40;1.10;;;;;;;;;;5097670;28;20187;-72
2022/10/03 11:22:41;;;;;;;4.45;1.33;;;;;;;;;;5094967;28;20051;-72
2022/10/03 11:25:26;;;;;;;3.03;1.25;;;;;;;;;;5097638;28;20097;-72
2022/10/03 11:27:52;;;;;;;5.15;1.23;;;;;;;;;;5097013;28;20457;-72
2022/10/03 11:30:24;;;;;;;5.55;1.50;;;;;;;;;;5097301;28;20133;-72
2022/10/03 11:33:00;;;;;;;2.60;1.30;;;;;;;;;;5097508;28;20048;-73
2022/10/03 11:35:41;;;;;;;2.20;1.13;;;;;;;;;;5098141;28;20027;-72
2022/10/03 11:38:13;;;;;;;3.92;0.90;;;;;;;;;;5097593;28;20032;-72
2022/10/03 11:40:58;;;;;;;2.42;1.00;;;;;;;;;;5097384;28;20506;-72
2022/10/03 11:43:43;;;;;;;3.28;1.50;;;;;;;;;;5097941;28;20050;-72
2022/10/03 11:46:20;;;;;;;6.00;1.45;;;;;;;;;;5097289;28;20040;-73
2022/10/03 11:48:51;;;;;;;4.40;1.10;;;;;;;;;;5097887;28;20119;-73
2022/10/03 11:51:23;;;;;;;3.33;1.20;;;;;;;;;;5097608;28;20047;-72
2022/10/03 11:53:57;;;;;;;3.13;1.10;;;;;;;;;;5109144;28;20052;-73
2022/10/03 11:56:59;;;;;;;2.92;1.10;;;;;;;;;;5117685;28;20044;-73
2022/10/03 11:59:31;;;;;;;4.65;1.35;;;;;;;;;;5034581;28;20415;-73
2022/10/03 12:02:06;;;;;;;3.42;1.20;;;;;;;;;;5105151;27;20408;-73
2022/10/03 12:04:48;;;;;;;3.28;1.48;;;;;;;;;;5098890;28;20052;-73
2022/10/03 12:10:08;;;;;;;4.07;1.38;;;;;;;;;;5096572;28;20398;-73
2022/10/03 12:12:38;;;;;;;4.10;1.10;;;;;;;;;;5096592;28;20043;-73
2022/10/03 12:15:14;;;;;;;1.65;0.93;;;;;;;;;;5100652;28;20080;-73
2022/10/03 12:17:45;;;;;;;2.80;1.10;;;;;;;;;;5116775;28;20169;-73
2022/10/03 12:20:25;;;;;;;3.25;1.08;;;;;;;;;;5116665;28;20047;-73
2022/10/03 12:22:58;;;;;;;3.75;1.60;;;;;;;;;;5103885;28;20490;-73
2022/10/03 12:25:29;;;;;;;1.38;0.85;;;;;;;;;;5116496;28;20062;-73
2022/10/03 12:27:55;;;;;;;;;;;;;;;;;;5096078;28;20129;-73
2022/10/03 12:30:26;;;;;;;3.10;1.23;;;;;;;;;;5096710;28;20349;-73
2022/10/03 12:33:11;;;;;;;1.98;1.08;;;;;;;;;;5110501;28;20093;-73
2022/10/03 12:35:51;;;;;;;1.65;0.90;;;;;;;;;;5117151;28;20603;-73
2022/10/03 12:38:29;;;;;;;2.40;1.15;;;;;;;;;;5116717;28;20039;-73
2022/10/03 12:41:09;;;;;;;4.00;0.90;;;;;;;;;;5097264;28;20067;-73
2022/10/03 12:43:44;;;;;;;2.13;1.00;;;;;;;;;;5096410;28;20044;-72
2022/10/03 12:46:15;;;;;;;2.55;1.10;;;;;;;;;;5093722;28;20052;-72
2022/10/03 12:48:43;;;;;;;4.38;1.40;;;;;;;;;;5114615;28;20051;-73
2022/10/03 12:51:28;;;;;;;2.70;0.88;;;;;;;;;;5116402;28;20043;-72
2022/10/03 13:56:00;;;;;;;3.00;1.33;;;;;;;;;;5072975;28;20452;-73
2022/10/03 13:58:34;;;;;;;3.97;1.63;;;;;;;;;;5091442;28;20098;-73
2022/10/03 14:01:12;;;;;;;4.82;1.38;;;;;;;;;;5089413;28;20047;-74
2022/10/03 14:03:57;;;;;;;1.92;1.10;;;;;;;;;;5091390;28;20048;-74
2022/10/03 14:06:41;;;;;;;3.28;0.80;;;;;;;;;;5089357;28;20040;-73
2022/10/03 14:09:26;;;;;;;2.33;0.90;;;;;;;;;;5091257;28;20043;-73
2022/10/03 14:12:16;;;;;;;3.35;1.13;;;;;;;;;;5090367;28;20173;-74
2022/10/03 14:14:42;;;;;;;2.17;1.17;;;;;;;;;;5090112;28;20181;-73
2022/10/03 14:17:11;;;;;;;3.15;1.00;;;;;;;;;;5089628;28;20097;-74
2022/10/03 14:19:43;;;;;;;3.00;1.23;;;;;;;;;;5076121;28;20041;-74
2022/10/03 14:22:10;;;;;;;4.13;1.13;;;;;;;;;;5089461;28;20044;-73
2022/10/03 14:24:37;;;;;;;2.63;0.90;;;;;;;;;;5089734;28;20040;-73
2022/10/03 14:27:19;;;;;;;2.20;1.10;;;;;;;;;;5089126;28;20456;-73
2022/10/03 14:29:45;;;;;;;2.85;1.02;;;;;;;;;;5088822;28;20044;-73
2022/10/03 14:32:20;;;;;;;3.45;1.40;;;;;;;;;;5090327;28;20172;-73
2022/10/03 14:35:13;;;;;;;4.00;1.10;;;;;;;;;;5090442;28;20157;-73
2022/10/03 14:37:47;;;;;;;5.03;1.10;;;;;;;;;;5090724;28;20048;-73
2022/10/03 14:40:16;;;;;;;3.25;1.30;;;;;;;;;;5090575;28;20075;-74
2022/10/03 14:43:01;;;;;;;2.92;1.13;;;;;;;;;;5090811;28;20169;-73
2022/10/03 14:45:29;;;;;;;2.45;1.20;;;;;;;;;;5089982;28;20537;-73
2022/10/03 14:47:59;;;;;;;4.15;1.35;;;;;;;;;;5089642;28;20036;-73
2022/10/03 14:50:27;;;;;;;3.97;1.20;;;;;;;;;;5090460;28;20115;-73
2022/10/03 14:53:12;;;;;;;3.55;1.10;;;;;;;;;;5090158;28;20040;-73
2022/10/03 14:55:46;;;;;;;4.10;1.00;;;;;;;;;;5089304;28;20088;-73
2022/10/03 14:58:22;;;;;;;1.98;1.10;;;;;;;;;;5090101;28;20067;-74
2022/10/03 15:00:54;;;;;;;1.67;1.00;;;;;;;;;;5089068;28;20044;-73
2022/10/03 15:03:29;;;;;;;4.43;0.93;;;;;;;;;;5090188;28;20098;-74
2022/10/03 15:06:10;;;;;;;2.55;0.77;;;;;;;;;;5084426;28;20083;-74
2022/10/03 15:08:42;;;;;;;5.43;1.20;;;;;;;;;;5075835;28;20040;-74
2022/10/03 15:11:11;;;;;;;5.15;0.85;;;;;;;;;;5076755;28;20079;-73
2022/10/03 15:13:44;;;;;;;2.92;0.85;;;;;;;;;;5075787;28;20048;-73
2022/10/03 15:16:14;;;;;;;3.10;1.08;;;;;;;;;;5074671;28;20407;-73
2022/10/03 15:18:44;;;;;;;1.25;0.90;;;;;;;;;;5076500;28;20044;-73
2022/10/03 15:21:13;;;;;;;1.33;1.10;;;;;;;;;;5071997;28;20041;-72
2022/10/03 15:23:44;;;;;;;0.85;0.60;;;;;;;;;;5076570;28;20259;-72
2022/10/03 15:26:17;;;;;;;2.58;1.10;;;;;;;;;;5076341;28;20126;-72
2022/10/03 15:28:58;;;;;;;3.17;0.98;;;;;;;;;;5076064;28;20048;-72
2022/10/03 15:31:30;;;;;;;1.02;0.70;;;;;;;;;;5076269;28;20503;-72
2022/10/03 15:33:56;;;;;;;3.40;0.80;;;;;;;;;;5076808;28;20055;-72
2022/10/03 15:36:25;;;;;;;4.15;0.95;;;;;;;;;;5075109;28;20044;-72
2022/10/03 15:39:02;;;;;;;4.32;1.17;;;;;;;;;;5076701;28;20197;-72
2022/10/03 15:41:37;;;;;;;1.40;0.80;;;;;;;;;;5076752;28;20090;-72
2022/10/03 15:44:03;;;;;;;4.22;0.90;;;;;;;;;;5076682;28;20044;-72
2022/10/03 15:46:34;;;;;;;2.85;0.90;;;;;;;;;;5076872;28;20047;-72
2022/10/03 15:49:01;;;;;;;;;;;;;;;;;;5076957;28;20041;-72
2022/10/03 15:51:29;;;;;;;5.55;1.17;;;;;;;;;;5076011;28;19912;-72
2022/10/03 15:53:57;;;;;;;2.08;0.95;;;;;;;;;;5075266;28;20080;-74
2022/10/03 15:56:33;;;;;;;1.20;1.00;;;;;;;;;;5075529;28;20040;-74
2022/10/03 15:59:05;;;;;;;5.95;1.73;;;;;;;;;;5075360;28;20131;-73
2022/10/03 16:01:31;;;;;;;1.52;0.98;;;;;;;;;;5074503;28;20071;-73
2022/10/03 16:04:02;;;;;;;1.30;0.90;;;;;;;;;;5075898;28;20079;-72
2022/10/03 16:06:46;;;;;;;1.75;0.98;;;;;;;;;;5076372;28;20037;-72
2022/10/03 16:09:21;;;;;;;2.40;1.38;;;;;;;;;;5076092;28;20371;-72
2022/10/03 16:11:51;;;;;;;1.80;1.10;;;;;;;;;;5075808;28;20044;-74
2022/10/03 16:14:26;;;;;;;4.53;1.00;;;;;;;;;;5080225;28;20048;-72
2022/10/03 16:16:54;;;;;;;1.65;1.10;;;;;;;;;;5075517;28;20562;-73
2022/10/03 16:19:26;;;;;;;2.65;1.30;;;;;;;;;;5075181;28;20544;-73
2022/10/03 16:21:58;;;;;;;2.28;0.93;;;;;;;;;;5075534;28;20123;-73
2022/10/03 16:24:28;;;;;;;2.45;1.20;;;;;;;;;;5075308;28;20037;-73
2022/10/03 16:26:56;;;;;;;1.67;1.13;;;;;;;;;;5075646;28;20036;-72
2022/10/03 16:29:33;;;;;;;4.18;0.90;;;;;;;;;;5075825;28;20044;-72
2022/10/03 16:32:13;;;;;;;2.35;0.90;;;;;;;;;;5076136;28;20099;-72
2022/10/03 16:34:42;;;;;;;4.32;1.15;;;;;;;;;;5073521;28;20108;-72
2022/10/03 16:37:15;;;;;;;6.15;1.08;;;;;;;;;;5071430;28;20048;-74
2022/10/03 16:39:42;;;;;;;1.83;0.90;;;;;;;;;;5066517;28;20522;-73
2022/10/03 16:42:15;;;;;;;3.55;1.30;;;;;;;;;;5062399;28;20097;-73
2022/10/03 16:44:47;;;;;;;1.55;0.85;;;;;;;;;;5072934;28;20051;-74
2022/10/03 16:47:15;;;;;;;2.33;0.90;;;;;;;;;;5075011;28;20383;-74
2022/10/03 16:52:33;;;;;;;2.05;0.90;;;;;;;;;;5074923;28;20081;-73
2022/10/03 16:55:01;;;;;;;3.40;1.30;;;;;;;;;;5075381;28;20133;-73
2022/10/03 16:57:33;;;;;;;3.17;1.27;;;;;;;;;;5074893;28;20125;-73